sensor_id;sensor_type;location;lat;lon;timestamp;temperature;humidity
18335;DHT22;9293;49.524;10.964;2022-12-18T00:01:28;-12.10;99.90
18335;DHT22;9293;49.524;10.964;2022-12-18T00:03:57;-12.10;99.90
18335;DHT22;9293;49.524;10.964;2022-12-18T00:06:27;-12.10;99.90
18335;DHT22;9293;49.524;10.964;2022-12-18T00:08:57;-12.10;99.90
18335;DHT22;9293;49.524;10.964;2022-12-18T00:11:27;-12.00;99.90
18335;DHT22;9293;49.524;10.964;2022-12-18T00:13:58;-11.90;99.90
18335;DHT22;9293;49.524;10.964;2022-12-18T00:16:30;-11.90;99.90
18335;DHT22;9293;49.524;10.964;2022-12-18T00:19:03;-12.00;99.90
18335;DHT22;9293;49.524;10.964;2022-12-18T00:21:32;-11.90;99.90
18335;DHT22;9293;49.524;10.964;2022-12-18T00:24:00;-11.90;99.90
18335;DHT22;9293;49.524;10.964;2022-12-18T00:26:31;-11.90;99.90
18335;DHT22;9293;49.524;10.964;2022-12-18T00:29:12;-11.80;99.90
18335;DHT22;9293;49.524;10.964;2022-12-18T00:31:43;-11.80;99.90
18335;DHT22;9293;49.524;10.964;2022-12-18T00:34:12;-11.70;99.90
18335;DHT22;9293;49.524;10.964;2022-12-18T00:36:41;-11.70;99.90
18335;DHT22;9293;49.524;10.964;2022-12-18T00:39:10;-11.60;99.90
18335;DHT22;9293;49.524;10.964;2022-12-18T00:41:38;-11.60;99.90
18335;DHT22;9293;49.524;10.964;2022-12-18T00:44:25;-11.60;99.90
18335;DHT22;9293;49.524;10.964;2022-12-18T00:46:53;-11.50;99.90
18335;DHT22;9293;49.524;10.964;2022-12-18T00:49:21;-11.60;99.90
18335;DHT22;9293;49.524;10.964;2022-12-18T00:51:49;-11.70;99.90
18335;DHT22;9293;49.524;10.964;2022-12-18T00:54:17;-11.70;99.90
18335;DHT22;9293;49.524;10.964;2022-12-18T00:56:45;-11.70;99.90
18335;DHT22;9293;49.524;10.964;2022-12-18T00:59:25;-11.70;99.90
18335;DHT22;9293;49.524;10.964;2022-12-18T01:01:53;-11.60;99.90
18335;DHT22;9293;49.524;10.964;2022-12-18T01:04:21;-11.70;99.90
18335;DHT22;9293;49.524;10.964;2022-12-18T01:06:49;-11.70;99.90
18335;DHT22;9293;49.524;10.964;2022-12-18T01:09:17;-11.70;99.90
18335;DHT22;9293;49.524;10.964;2022-12-18T01:11:45;-11.70;99.90
18335;DHT22;9293;49.524;10.964;2022-12-18T01:14:13;-11.70;99.90
18335;DHT22;9293;49.524;10.964;2022-12-18T01:16:41;-11.80;99.90
18335;DHT22;9293;49.524;10.964;2022-12-18T01:19:09;-11.90;99.90
18335;DHT22;9293;49.524;10.964;2022-12-18T01:21:38;-12.10;99.90
18335;DHT22;9293;49.524;10.964;2022-12-18T01:24:06;-12.10;99.90
18335;DHT22;9293;49.524;10.964;2022-12-18T01:26:34;-12.10;99.90
18335;DHT22;9293;49.524;10.964;2022-12-18T01:29:02;-12.20;99.90
18335;DHT22;9293;49.524;10.964;2022-12-18T01:31:32;-12.20;99.90
18335;DHT22;9293;49.524;10.964;2022-12-18T01:34:03;-12.20;99.90
18335;DHT22;9293;49.524;10.964;2022-12-18T01:36:36;-12.10;99.90
18335;DHT22;9293;49.524;10.964;2022-12-18T01:39:07;-12.00;99.90
18335;DHT22;9293;49.524;10.964;2022-12-18T01:41:35;-12.10;99.90
18335;DHT22;9293;49.524;10.964;2022-12-18T01:47:44;-12.20;99.90
18335;DHT22;9293;49.524;10.964;2022-12-18T01:50:22;-12.30;99.90
18335;DHT22;9293;49.524;10.964;2022-12-18T01:52:57;-12.20;99.90
18335;DHT22;9293;49.524;10.964;2022-12-18T01:55:28;-12.20;99.90
18335;DHT22;9293;49.524;10.964;2022-12-18T01:57:59;-12.10;99.90
18335;DHT22;9293;49.524;10.964;2022-12-18T02:00:27;-12.10;99.90
18335;DHT22;9293;49.524;10.964;2022-12-18T02:02:55;-12.10;99.90
18335;DHT22;9293;49.524;10.964;2022-12-18T02:08:22;-12.10;99.90
18335;DHT22;9293;49.524;10.964;2022-12-18T02:11:16;-12.00;99.90
18335;DHT22;9293;49.524;10.964;2022-12-18T02:14:13;-11.90;99.90
18335;DHT22;9293;49.524;10.964;2022-12-18T02:17:07;-11.80;99.90
18335;DHT22;9293;49.524;10.964;2022-12-18T02:28:24;-11.40;99.90
18335;DHT22;9293;49.524;10.964;2022-12-18T02:31:04;-11.20;99.90
18335;DHT22;9293;49.524;10.964;2022-12-18T02:33:35;-11.10;99.90
18335;DHT22;9293;49.524;10.964;2022-12-18T02:36:08;-11.00;99.90
18335;DHT22;9293;49.524;10.964;2022-12-18T02:38:41;-10.90;99.90
18335;DHT22;9293;49.524;10.964;2022-12-18T02:41:13;-10.80;99.90
18335;DHT22;9293;49.524;10.964;2022-12-18T02:44:00;-10.70;99.90
18335;DHT22;9293;49.524;10.964;2022-12-18T02:46:34;-10.60;99.90
18335;DHT22;9293;49.524;10.964;2022-12-18T02:49:30;-10.50;99.90
18335;DHT22;9293;49.524;10.964;2022-12-18T02:52:20;-10.40;99.90
18335;DHT22;9293;49.524;10.964;2022-12-18T03:03:26;-10.00;99.90
18335;DHT22;9293;49.524;10.964;2022-12-18T03:06:12;-9.90;99.90
18335;DHT22;9293;49.524;10.964;2022-12-18T03:08:46;-9.90;99.90
18335;DHT22;9293;49.524;10.964;2022-12-18T03:11:17;-9.80;99.90
18335;DHT22;9293;49.524;10.964;2022-12-18T03:14:09;-9.70;99.90
18335;DHT22;9293;49.524;10.964;2022-12-18T03:16:40;-9.70;99.90
18335;DHT22;9293;49.524;10.964;2022-12-18T03:19:20;-9.70;99.90
18335;DHT22;9293;49.524;10.964;2022-12-18T03:21:54;-9.60;99.90
18335;DHT22;9293;49.524;10.964;2022-12-18T03:24:26;-9.50;99.90
18335;DHT22;9293;49.524;10.964;2022-12-18T03:27:01;-9.50;99.90
18335;DHT22;9293;49.524;10.964;2022-12-18T03:29:43;-9.40;99.90
18335;DHT22;9293;49.524;10.964;2022-12-18T03:32:32;-9.30;99.90
18335;DHT22;9293;49.524;10.964;2022-12-18T03:35:04;-9.20;99.90
18335;DHT22;9293;49.524;10.964;2022-12-18T03:37:36;-9.20;99.90
18335;DHT22;9293;49.524;10.964;2022-12-18T03:40:05;-9.10;99.90
18335;DHT22;9293;49.524;10.964;2022-12-18T03:42:57;-9.10;99.90
18335;DHT22;9293;49.524;10.964;2022-12-18T03:45:37;-9.00;99.90
18335;DHT22;9293;49.524;10.964;2022-12-18T03:48:19;-8.90;99.90
18335;DHT22;9293;49.524;10.964;2022-12-18T03:51:06;-8.90;99.90
18335;DHT22;9293;49.524;10.964;2022-12-18T03:56:32;-8.80;99.90
18335;DHT22;9293;49.524;10.964;2022-12-18T03:59:03;-8.70;99.90
18335;DHT22;9293;49.524;10.964;2022-12-18T04:01:35;-8.70;99.90
18335;DHT22;9293;49.524;10.964;2022-12-18T04:04:06;-8.70;99.90
18335;DHT22;9293;49.524;10.964;2022-12-18T04:06:38;-8.70;99.90
18335;DHT22;9293;49.524;10.964;2022-12-18T04:09:12;-8.70;99.90
18335;DHT22;9293;49.524;10.964;2022-12-18T04:11:46;-8.60;99.90
18335;DHT22;9293;49.524;10.964;2022-12-18T04:14:15;-8.60;99.90
18335;DHT22;9293;49.524;10.964;2022-12-18T04:16:47;-8.50;99.90
18335;DHT22;9293;49.524;10.964;2022-12-18T04:19:18;-8.40;99.90
18335;DHT22;9293;49.524;10.964;2022-12-18T04:21:49;-8.40;99.90
18335;DHT22;9293;49.524;10.964;2022-12-18T04:24:17;-8.30;99.90
18335;DHT22;9293;49.524;10.964;2022-12-18T04:26:57;-8.30;99.90
18335;DHT22;9293;49.524;10.964;2022-12-18T04:29:30;-8.20;99.90
18335;DHT22;9293;49.524;10.964;2022-12-18T04:31:58;-8.20;99.90
18335;DHT22;9293;49.524;10.964;2022-12-18T04:34:28;-8.10;99.90
18335;DHT22;9293;49.524;10.964;2022-12-18T04:36:57;-8.10;99.90
18335;DHT22;9293;49.524;10.964;2022-12-18T04:39:26;-8.00;99.90
18335;DHT22;9293;49.524;10.964;2022-12-18T04:42:01;-8.00;99.90
18335;DHT22;9293;49.524;10.964;2022-12-18T04:44:29;-7.90;99.90
18335;DHT22;9293;49.524;10.964;2022-12-18T04:46:57;-7.90;99.90
18335;DHT22;9293;49.524;10.964;2022-12-18T04:49:25;-7.80;99.90
18335;DHT22;9293;49.524;10.964;2022-12-18T04:51:53;-7.80;99.90
18335;DHT22;9293;49.524;10.964;2022-12-18T04:54:21;-7.70;99.90
18335;DHT22;9293;49.524;10.964;2022-12-18T04:56:49;-7.70;99.90
18335;DHT22;9293;49.524;10.964;2022-12-18T04:59:17;-7.60;99.90
18335;DHT22;9293;49.524;10.964;2022-12-18T05:01:45;-7.60;99.90
18335;DHT22;9293;49.524;10.964;2022-12-18T05:04:13;-7.50;99.90
18335;DHT22;9293;49.524;10.964;2022-12-18T05:06:46;-7.50;99.90
18335;DHT22;9293;49.524;10.964;2022-12-18T05:09:17;-7.50;99.90
18335;DHT22;9293;49.524;10.964;2022-12-18T05:11:47;-7.40;99.90
18335;DHT22;9293;49.524;10.964;2022-12-18T05:14:15;-7.40;99.90
18335;DHT22;9293;49.524;10.964;2022-12-18T05:16:43;-7.40;99.90
18335;DHT22;9293;49.524;10.964;2022-12-18T05:19:11;-7.30;99.90
18335;DHT22;9293;49.524;10.964;2022-12-18T05:21:39;-7.30;99.90
18335;DHT22;9293;49.524;10.964;2022-12-18T05:24:08;-7.20;99.90
18335;DHT22;9293;49.524;10.964;2022-12-18T05:26:35;-7.20;99.90
18335;DHT22;9293;49.524;10.964;2022-12-18T05:29:03;-7.20;99.90
18335;DHT22;9293;49.524;10.964;2022-12-18T05:31:31;-7.10;99.90
18335;DHT22;9293;49.524;10.964;2022-12-18T05:34:06;-7.10;99.90
18335;DHT22;9293;49.524;10.964;2022-12-18T05:36:34;-7.00;99.90
18335;DHT22;9293;49.524;10.964;2022-12-18T05:39:02;-7.00;99.90
18335;DHT22;9293;49.524;10.964;2022-12-18T05:41:31;-6.90;99.90
18335;DHT22;9293;49.524;10.964;2022-12-18T05:43:59;-6.90;99.90
18335;DHT22;9293;49.524;10.964;2022-12-18T05:46:27;-6.80;99.90
18335;DHT22;9293;49.524;10.964;2022-12-18T05:48:59;-6.80;99.90
18335;DHT22;9293;49.524;10.964;2022-12-18T05:51:28;-6.80;99.90
18335;DHT22;9293;49.524;10.964;2022-12-18T05:53:56;-6.80;99.90
18335;DHT22;9293;49.524;10.964;2022-12-18T05:56:24;-6.70;99.90
18335;DHT22;9293;49.524;10.964;2022-12-18T05:58:53;-6.70;99.90
18335;DHT22;9293;49.524;10.964;2022-12-18T06:01:24;-6.70;99.90
18335;DHT22;9293;49.524;10.964;2022-12-18T06:03:53;-6.60;99.90
18335;DHT22;9293;49.524;10.964;2022-12-18T06:06:27;-6.60;99.90
18335;DHT22;9293;49.524;10.964;2022-12-18T06:08:55;-6.60;99.90
18335;DHT22;9293;49.524;10.964;2022-12-18T06:11:25;-6.50;99.90
18335;DHT22;9293;49.524;10.964;2022-12-18T06:13:55;-6.50;99.90
18335;DHT22;9293;49.524;10.964;2022-12-18T06:16:27;-6.40;99.90
18335;DHT22;9293;49.524;10.964;2022-12-18T06:18:57;-6.40;99.90
18335;DHT22;9293;49.524;10.964;2022-12-18T06:21:27;-6.40;99.90
18335;DHT22;9293;49.524;10.964;2022-12-18T06:23:59;-6.40;99.90
18335;DHT22;9293;49.524;10.964;2022-12-18T06:26:37;-6.30;99.90
18335;DHT22;9293;49.524;10.964;2022-12-18T06:29:06;-6.30;99.90
18335;DHT22;9293;49.524;10.964;2022-12-18T06:31:34;-6.20;99.90
18335;DHT22;9293;49.524;10.964;2022-12-18T06:34:03;-6.20;99.90
18335;DHT22;9293;49.524;10.964;2022-12-18T06:36:32;-6.20;99.90
18335;DHT22;9293;49.524;10.964;2022-12-18T06:39:00;-6.10;99.90
18335;DHT22;9293;49.524;10.964;2022-12-18T06:41:28;-6.10;99.90
18335;DHT22;9293;49.524;10.964;2022-12-18T06:43:57;-6.00;99.90
18335;DHT22;9293;49.524;10.964;2022-12-18T06:46:26;-6.00;99.90
18335;DHT22;9293;49.524;10.964;2022-12-18T06:48:54;-6.00;99.90
18335;DHT22;9293;49.524;10.964;2022-12-18T06:51:24;-5.90;99.90
18335;DHT22;9293;49.524;10.964;2022-12-18T06:53:52;-5.90;99.90
18335;DHT22;9293;49.524;10.964;2022-12-18T06:56:20;-5.90;99.90
18335;DHT22;9293;49.524;10.964;2022-12-18T06:58:48;-5.80;99.90
18335;DHT22;9293;49.524;10.964;2022-12-18T07:01:18;-5.80;99.90
18335;DHT22;9293;49.524;10.964;2022-12-18T07:03:46;-5.70;99.90
18335;DHT22;9293;49.524;10.964;2022-12-18T07:06:17;-5.70;99.90
18335;DHT22;9293;49.524;10.964;2022-12-18T07:08:46;-5.60;99.90
18335;DHT22;9293;49.524;10.964;2022-12-18T07:11:15;-5.60;99.90
18335;DHT22;9293;49.524;10.964;2022-12-18T07:13:43;-5.50;99.90
18335;DHT22;9293;49.524;10.964;2022-12-18T07:16:14;-5.50;99.90
18335;DHT22;9293;49.524;10.964;2022-12-18T07:18:50;-5.40;99.90
18335;DHT22;9293;49.524;10.964;2022-12-18T07:21:19;-5.40;99.90
18335;DHT22;9293;49.524;10.964;2022-12-18T07:23:50;-5.30;99.90
18335;DHT22;9293;49.524;10.964;2022-12-18T07:26:20;-5.30;99.90
18335;DHT22;9293;49.524;10.964;2022-12-18T07:28:54;-5.30;99.90
18335;DHT22;9293;49.524;10.964;2022-12-18T07:31:26;-5.20;99.90
18335;DHT22;9293;49.524;10.964;2022-12-18T07:33:55;-5.20;99.90
18335;DHT22;9293;49.524;10.964;2022-12-18T07:36:23;-5.20;99.90
18335;DHT22;9293;49.524;10.964;2022-12-18T07:38:51;-5.10;99.90
18335;DHT22;9293;49.524;10.964;2022-12-18T07:41:20;-5.10;99.90
18335;DHT22;9293;49.524;10.964;2022-12-18T07:43:48;-5.00;99.90
18335;DHT22;9293;49.524;10.964;2022-12-18T07:46:17;-5.00;99.90
18335;DHT22;9293;49.524;10.964;2022-12-18T07:48:45;-5.00;99.90
18335;DHT22;9293;49.524;10.964;2022-12-18T07:51:17;-5.00;99.90
18335;DHT22;9293;49.524;10.964;2022-12-18T07:53:46;-4.90;99.90
18335;DHT22;9293;49.524;10.964;2022-12-18T07:56:18;-4.90;99.90
18335;DHT22;9293;49.524;10.964;2022-12-18T07:58:56;-4.90;99.90
18335;DHT22;9293;49.524;10.964;2022-12-18T08:01:27;-4.90;99.90
18335;DHT22;9293;49.524;10.964;2022-12-18T08:03:57;-4.80;99.90
18335;DHT22;9293;49.524;10.964;2022-12-18T08:06:25;-4.80;99.90
18335;DHT22;9293;49.524;10.964;2022-12-18T08:08:54;-4.70;99.90
18335;DHT22;9293;49.524;10.964;2022-12-18T08:11:24;-4.70;99.90
18335;DHT22;9293;49.524;10.964;2022-12-18T08:13:53;-4.60;99.90
18335;DHT22;9293;49.524;10.964;2022-12-18T08:16:22;-4.60;99.90
18335;DHT22;9293;49.524;10.964;2022-12-18T08:18:51;-4.50;99.90
18335;DHT22;9293;49.524;10.964;2022-12-18T08:21:24;-4.50;99.90
18335;DHT22;9293;49.524;10.964;2022-12-18T08:23:53;-4.50;99.90
18335;DHT22;9293;49.524;10.964;2022-12-18T08:26:24;-4.40;99.90
18335;DHT22;9293;49.524;10.964;2022-12-18T08:29:26;-4.40;99.90
18335;DHT22;9293;49.524;10.964;2022-12-18T08:32:38;-4.40;99.90
18335;DHT22;9293;49.524;10.964;2022-12-18T08:35:59;-4.30;99.90
18335;DHT22;9293;49.524;10.964;2022-12-18T08:38:28;-4.30;99.90
18335;DHT22;9293;49.524;10.964;2022-12-18T08:41:08;-4.20;99.90
18335;DHT22;9293;49.524;10.964;2022-12-18T08:43:39;-4.10;99.90
18335;DHT22;9293;49.524;10.964;2022-12-18T08:46:27;-4.00;99.90
18335;DHT22;9293;49.524;10.964;2022-12-18T08:48:58;-3.90;99.90
18335;DHT22;9293;49.524;10.964;2022-12-18T08:51:29;-3.80;99.90
18335;DHT22;9293;49.524;10.964;2022-12-18T08:53:57;-3.80;99.90
18335;DHT22;9293;49.524;10.964;2022-12-18T08:56:25;-3.70;99.90
18335;DHT22;9293;49.524;10.964;2022-12-18T08:58:54;-3.60;99.90
18335;DHT22;9293;49.524;10.964;2022-12-18T09:01:22;-3.70;99.90
18335;DHT22;9293;49.524;10.964;2022-12-18T09:03:51;-3.60;99.90
18335;DHT22;9293;49.524;10.964;2022-12-18T09:06:21;-3.50;99.90
18335;DHT22;9293;49.524;10.964;2022-12-18T09:08:50;-3.50;99.90
18335;DHT22;9293;49.524;10.964;2022-12-18T09:11:24;-3.40;99.90
18335;DHT22;9293;49.524;10.964;2022-12-18T09:13:54;-3.40;99.90
18335;DHT22;9293;49.524;10.964;2022-12-18T09:16:23;-3.30;99.90
18335;DHT22;9293;49.524;10.964;2022-12-18T09:18:58;-3.30;99.90
18335;DHT22;9293;49.524;10.964;2022-12-18T09:21:32;-3.30;99.90
18335;DHT22;9293;49.524;10.964;2022-12-18T09:24:08;-3.20;99.90
18335;DHT22;9293;49.524;10.964;2022-12-18T09:26:39;-3.20;99.90
18335;DHT22;9293;49.524;10.964;2022-12-18T09:29:09;-3.10;99.90
18335;DHT22;9293;49.524;10.964;2022-12-18T09:31:38;-3.10;99.90
18335;DHT22;9293;49.524;10.964;2022-12-18T09:34:06;-3.00;99.90
18335;DHT22;9293;49.524;10.964;2022-12-18T09:36:34;-2.90;99.90
18335;DHT22;9293;49.524;10.964;2022-12-18T09:39:03;-2.90;99.90
18335;DHT22;9293;49.524;10.964;2022-12-18T09:46:52;-2.80;99.90
18335;DHT22;9293;49.524;10.964;2022-12-18T09:49:23;-2.80;99.90
18335;DHT22;9293;49.524;10.964;2022-12-18T09:52:08;-2.80;99.90
18335;DHT22;9293;49.524;10.964;2022-12-18T09:55:03;-2.80;99.90
18335;DHT22;9293;49.524;10.964;2022-12-18T09:57:37;-2.70;99.90
18335;DHT22;9293;49.524;10.964;2022-12-18T10:02:38;-2.70;99.90
18335;DHT22;9293;49.524;10.964;2022-12-18T10:05:15;-2.70;99.90
18335;DHT22;9293;49.524;10.964;2022-12-18T10:08:02;-2.60;99.90
18335;DHT22;9293;49.524;10.964;2022-12-18T10:10:47;-2.60;99.90
18335;DHT22;9293;49.524;10.964;2022-12-18T10:16:03;-2.50;99.90
18335;DHT22;9293;49.524;10.964;2022-12-18T10:24:34;-2.60;99.90
18335;DHT22;9293;49.524;10.964;2022-12-18T10:27:14;-2.60;99.90
18335;DHT22;9293;49.524;10.964;2022-12-18T10:29:43;-2.50;99.90
18335;DHT22;9293;49.524;10.964;2022-12-18T10:32:24;-2.40;99.90
18335;DHT22;9293;49.524;10.964;2022-12-18T10:34:55;-2.40;99.90
18335;DHT22;9293;49.524;10.964;2022-12-18T10:37:29;-2.40;99.90
18335;DHT22;9293;49.524;10.964;2022-12-18T10:40:14;-2.40;99.90
18335;DHT22;9293;49.524;10.964;2022-12-18T10:43:11;-2.50;99.90
18335;DHT22;9293;49.524;10.964;2022-12-18T10:45:39;-2.50;99.90
18335;DHT22;9293;49.524;10.964;2022-12-18T10:48:18;-2.50;99.90
18335;DHT22;9293;49.524;10.964;2022-12-18T10:50:49;-2.40;99.90
18335;DHT22;9293;49.524;10.964;2022-12-18T10:53:37;-2.40;99.90
18335;DHT22;9293;49.524;10.964;2022-12-18T10:56:07;-2.40;99.90
18335;DHT22;9293;49.524;10.964;2022-12-18T10:58:37;-2.40;99.90
18335;DHT22;9293;49.524;10.964;2022-12-18T11:01:12;-2.40;99.90
18335;DHT22;9293;49.524;10.964;2022-12-18T11:03:59;-2.40;99.90
18335;DHT22;9293;49.524;10.964;2022-12-18T11:06:29;-2.30;99.90
18335;DHT22;9293;49.524;10.964;2022-12-18T11:09:05;-2.20;99.90
18335;DHT22;9293;49.524;10.964;2022-12-18T11:11:41;-2.20;99.90
18335;DHT22;9293;49.524;10.964;2022-12-18T11:14:44;-2.10;99.90
18335;DHT22;9293;49.524;10.964;2022-12-18T11:17:28;-2.00;99.90
18335;DHT22;9293;49.524;10.964;2022-12-18T11:20:01;-2.10;99.90
18335;DHT22;9293;49.524;10.964;2022-12-18T11:22:32;-2.00;99.90
18335;DHT22;9293;49.524;10.964;2022-12-18T11:25:03;-2.00;99.90
18335;DHT22;9293;49.524;10.964;2022-12-18T11:30:34;-2.00;99.90
18335;DHT22;9293;49.524;10.964;2022-12-18T11:33:15;-1.90;99.90
18335;DHT22;9293;49.524;10.964;2022-12-18T11:35:53;-1.90;99.90
18335;DHT22;9293;49.524;10.964;2022-12-18T11:38:34;-1.80;99.90
18335;DHT22;9293;49.524;10.964;2022-12-18T11:43:49;-1.70;99.90
18335;DHT22;9293;49.524;10.964;2022-12-18T11:46:24;-1.70;99.90
18335;DHT22;9293;49.524;10.964;2022-12-18T11:49:11;-1.70;99.90
18335;DHT22;9293;49.524;10.964;2022-12-18T11:52:02;-1.60;99.90
18335;DHT22;9293;49.524;10.964;2022-12-18T11:54:32;-1.60;99.90
18335;DHT22;9293;49.524;10.964;2022-12-18T12:00:13;-1.50;99.90
18335;DHT22;9293;49.524;10.964;2022-12-18T12:03:06;-1.60;99.90
18335;DHT22;9293;49.524;10.964;2022-12-18T12:11:16;-1.70;99.90
18335;DHT22;9293;49.524;10.964;2022-12-18T12:17:03;-1.70;99.90
18335;DHT22;9293;49.524;10.964;2022-12-18T12:19:43;-1.60;99.90
18335;DHT22;9293;49.524;10.964;2022-12-18T12:25:46;-1.50;99.90
18335;DHT22;9293;49.524;10.964;2022-12-18T12:40:03;-1.30;99.90
18335;DHT22;9293;49.524;10.964;2022-12-18T12:42:55;-1.30;99.90
18335;DHT22;9293;49.524;10.964;2022-12-18T12:45:56;-1.30;99.90
18335;DHT22;9293;49.524;10.964;2022-12-18T12:51:26;-1.30;99.90
18335;DHT22;9293;49.524;10.964;2022-12-18T12:53:57;-1.20;99.90
18335;DHT22;9293;49.524;10.964;2022-12-18T13:02:38;-0.70;99.90
18335;DHT22;9293;49.524;10.964;2022-12-18T13:08:00;-1.10;99.90
18335;DHT22;9293;49.524;10.964;2022-12-18T13:10:37;-1.20;99.90
18335;DHT22;9293;49.524;10.964;2022-12-18T13:13:10;-1.20;99.90
18335;DHT22;9293;49.524;10.964;2022-12-18T13:18:25;-1.20;99.90
18335;DHT22;9293;49.524;10.964;2022-12-18T13:23:33;-1.30;99.90
18335;DHT22;9293;49.524;10.964;2022-12-18T13:28:54;-1.30;99.90
18335;DHT22;9293;49.524;10.964;2022-12-18T13:34:20;-1.10;99.90
18335;DHT22;9293;49.524;10.964;2022-12-18T13:36:55;-1.00;99.90
18335;DHT22;9293;49.524;10.964;2022-12-18T13:39:38;-1.00;99.90
18335;DHT22;9293;49.524;10.964;2022-12-18T13:44:40;-1.20;99.90
18335;DHT22;9293;49.524;10.964;2022-12-18T13:47:32;-1.20;99.90
18335;DHT22;9293;49.524;10.964;2022-12-18T13:50:09;-1.30;99.90
18335;DHT22;9293;49.524;10.964;2022-12-18T13:52:39;-1.40;99.90
18335;DHT22;9293;49.524;10.964;2022-12-18T13:55:17;-1.40;99.90
18335;DHT22;9293;49.524;10.964;2022-12-18T13:57:47;-1.50;99.90
18335;DHT22;9293;49.524;10.964;2022-12-18T14:00:31;-1.50;99.90
18335;DHT22;9293;49.524;10.964;2022-12-18T14:03:21;-1.60;99.90
18335;DHT22;9293;49.524;10.964;2022-12-18T14:06:07;-1.60;99.90
18335;DHT22;9293;49.524;10.964;2022-12-18T14:08:41;-1.70;99.90
18335;DHT22;9293;49.524;10.964;2022-12-18T14:11:20;-1.70;99.90
18335;DHT22;9293;49.524;10.964;2022-12-18T14:13:52;-1.70;99.90
18335;DHT22;9293;49.524;10.964;2022-12-18T14:16:20;-1.70;99.90
18335;DHT22;9293;49.524;10.964;2022-12-18T14:18:54;-1.70;99.90
18335;DHT22;9293;49.524;10.964;2022-12-18T14:21:52;-1.80;99.90
18335;DHT22;9293;49.524;10.964;2022-12-18T14:24:21;-1.80;99.90
18335;DHT22;9293;49.524;10.964;2022-12-18T14:26:50;-1.80;99.90
18335;DHT22;9293;49.524;10.964;2022-12-18T14:29:27;-1.80;99.90
18335;DHT22;9293;49.524;10.964;2022-12-18T14:32:13;-1.80;99.90
18335;DHT22;9293;49.524;10.964;2022-12-18T14:34:46;-1.90;99.90
18335;DHT22;9293;49.524;10.964;2022-12-18T14:37:18;-2.00;99.90
18335;DHT22;9293;49.524;10.964;2022-12-18T14:42:22;-2.00;99.90
18335;DHT22;9293;49.524;10.964;2022-12-18T14:44:50;-2.10;99.90
18335;DHT22;9293;49.524;10.964;2022-12-18T14:47:38;-2.10;99.90
18335;DHT22;9293;49.524;10.964;2022-12-18T14:50:13;-2.20;99.90
18335;DHT22;9293;49.524;10.964;2022-12-18T14:52:41;-2.30;99.90
18335;DHT22;9293;49.524;10.964;2022-12-18T14:55:17;-2.30;99.90
18335;DHT22;9293;49.524;10.964;2022-12-18T14:57:50;-2.40;99.90
18335;DHT22;9293;49.524;10.964;2022-12-18T15:00:21;-2.40;99.90
18335;DHT22;9293;49.524;10.964;2022-12-18T15:02:55;-2.50;99.90
18335;DHT22;9293;49.524;10.964;2022-12-18T15:05:29;-2.50;99.90
18335;DHT22;9293;49.524;10.964;2022-12-18T15:07:59;-2.50;99.90
18335;DHT22;9293;49.524;10.964;2022-12-18T15:10:30;-2.50;99.90
18335;DHT22;9293;49.524;10.964;2022-12-18T15:21:52;-2.70;99.90
18335;DHT22;9293;49.524;10.964;2022-12-18T15:24:26;-2.70;99.90
18335;DHT22;9293;49.524;10.964;2022-12-18T15:26:55;-2.80;99.90
18335;DHT22;9293;49.524;10.964;2022-12-18T15:29:24;-2.80;99.90
18335;DHT22;9293;49.524;10.964;2022-12-18T15:32:02;-2.80;99.90
18335;DHT22;9293;49.524;10.964;2022-12-18T15:34:31;-2.90;99.90
18335;DHT22;9293;49.524;10.964;2022-12-18T15:37:01;-2.90;99.90
18335;DHT22;9293;49.524;10.964;2022-12-18T15:39:29;-2.90;99.90
18335;DHT22;9293;49.524;10.964;2022-12-18T15:41:57;-3.00;99.90
18335;DHT22;9293;49.524;10.964;2022-12-18T15:44:44;-3.00;99.90
18335;DHT22;9293;49.524;10.964;2022-12-18T15:47:13;-3.00;99.90
18335;DHT22;9293;49.524;10.964;2022-12-18T15:49:41;-3.10;99.90
18335;DHT22;9293;49.524;10.964;2022-12-18T15:52:11;-3.10;99.90
18335;DHT22;9293;49.524;10.964;2022-12-18T15:54:40;-3.10;99.90
18335;DHT22;9293;49.524;10.964;2022-12-18T15:57:27;-3.10;99.90
18335;DHT22;9293;49.524;10.964;2022-12-18T15:59:56;-3.10;99.90
18335;DHT22;9293;49.524;10.964;2022-12-18T16:02:29;-3.10;99.90
18335;DHT22;9293;49.524;10.964;2022-12-18T16:04:57;-3.10;99.90
18335;DHT22;9293;49.524;10.964;2022-12-18T16:07:25;-3.10;99.90
18335;DHT22;9293;49.524;10.964;2022-12-18T16:09:56;-3.10;99.90
18335;DHT22;9293;49.524;10.964;2022-12-18T16:12:28;-3.10;99.90
18335;DHT22;9293;49.524;10.964;2022-12-18T16:14:56;-3.10;99.90
18335;DHT22;9293;49.524;10.964;2022-12-18T16:17:24;-3.10;99.90
18335;DHT22;9293;49.524;10.964;2022-12-18T16:19:52;-3.10;99.90
18335;DHT22;9293;49.524;10.964;2022-12-18T16:22:23;-3.10;99.90
18335;DHT22;9293;49.524;10.964;2022-12-18T16:24:52;-3.10;99.90
18335;DHT22;9293;49.524;10.964;2022-12-18T16:27:22;-3.10;99.90
18335;DHT22;9293;49.524;10.964;2022-12-18T16:29:50;-3.20;99.90
18335;DHT22;9293;49.524;10.964;2022-12-18T16:32:20;-3.20;99.90
18335;DHT22;9293;49.524;10.964;2022-12-18T16:34:50;-3.20;99.90
18335;DHT22;9293;49.524;10.964;2022-12-18T16:37:18;-3.30;99.90
18335;DHT22;9293;49.524;10.964;2022-12-18T16:39:46;-3.30;99.90
18335;DHT22;9293;49.524;10.964;2022-12-18T16:42:17;-3.30;99.90
18335;DHT22;9293;49.524;10.964;2022-12-18T16:44:47;-3.30;99.90
18335;DHT22;9293;49.524;10.964;2022-12-18T16:47:16;-3.40;99.90
18335;DHT22;9293;49.524;10.964;2022-12-18T16:49:45;-3.40;99.90
18335;DHT22;9293;49.524;10.964;2022-12-18T16:52:14;-3.40;99.90
18335;DHT22;9293;49.524;10.964;2022-12-18T16:54:43;-3.40;99.90
18335;DHT22;9293;49.524;10.964;2022-12-18T16:57:14;-3.50;99.90
18335;DHT22;9293;49.524;10.964;2022-12-18T16:59:50;-3.50;99.90
18335;DHT22;9293;49.524;10.964;2022-12-18T17:02:27;-3.50;99.90
18335;DHT22;9293;49.524;10.964;2022-12-18T17:04:57;-3.50;99.90
18335;DHT22;9293;49.524;10.964;2022-12-18T17:07:26;-3.50;99.90
18335;DHT22;9293;49.524;10.964;2022-12-18T17:09:55;-3.60;99.90
18335;DHT22;9293;49.524;10.964;2022-12-18T17:12:23;-3.60;99.90
18335;DHT22;9293;49.524;10.964;2022-12-18T17:14:51;-3.60;99.90
18335;DHT22;9293;49.524;10.964;2022-12-18T17:17:20;-3.60;99.90
18335;DHT22;9293;49.524;10.964;2022-12-18T17:19:50;-3.60;99.90
18335;DHT22;9293;49.524;10.964;2022-12-18T17:22:19;-3.70;99.90
18335;DHT22;9293;49.524;10.964;2022-12-18T17:24:51;-3.70;99.90
18335;DHT22;9293;49.524;10.964;2022-12-18T17:27:19;-3.70;99.90
18335;DHT22;9293;49.524;10.964;2022-12-18T17:29:46;-3.70;99.90
18335;DHT22;9293;49.524;10.964;2022-12-18T17:32:15;-3.30;99.90
18335;DHT22;9293;49.524;10.964;2022-12-18T17:34:44;-3.30;99.90
18335;DHT22;9293;49.524;10.964;2022-12-18T17:37:14;-3.50;99.90
18335;DHT22;9293;49.524;10.964;2022-12-18T17:39:42;-3.60;99.90
18335;DHT22;9293;49.524;10.964;2022-12-18T17:42:11;-3.70;99.90
18335;DHT22;9293;49.524;10.964;2022-12-18T17:44:41;-3.80;99.90
18335;DHT22;9293;49.524;10.964;2022-12-18T17:47:11;-3.80;99.90
18335;DHT22;9293;49.524;10.964;2022-12-18T17:49:39;-3.80;99.90
18335;DHT22;9293;49.524;10.964;2022-12-18T17:52:07;-3.90;99.90
18335;DHT22;9293;49.524;10.964;2022-12-18T17:54:36;-3.90;99.90
18335;DHT22;9293;49.524;10.964;2022-12-18T17:57:06;-3.90;99.90